Time,TemperatureF,DewpointF,PressureIn,WindDirection,WindDirectionDegrees,WindSpeedMPH,WindSpeedGustMPH,Humidity,HourlyPrecipIn,Conditions,Clouds,dailyrainin,SoftwareType,DateUTC
2013-06-29 00:01:00,65.0,59.0,29.65,WSW,247,0.0,0.0,81,0.00,,,0.04,,2013-06-29 04:01:00,
2013-06-29 00:11:00,65.0,59.0,29.65,WSW,247,0.0,0.0,81,0.00,,,0.04,,2013-06-29 04:11:00,
2013-06-29 00:24:00,65.0,59.0,29.65,WSW,247,0.0,0.0,81,0.00,,,0.04,,2013-06-29 04:24:00,
2013-06-29 00:32:00,65.0,59.0,29.65,WSW,247,0.0,0.0,81,0.00,,,0.04,,2013-06-29 04:32:00,
2013-06-29 01:31:00,65.0,59.0,29.64,WSW,247,0.0,0.0,82,0.00,,,0.04,,2013-06-29 05:31:00,
2013-06-29 01:42:00,65.0,59.0,29.64,WSW,247,0.0,0.0,82,0.00,,,0.04,,2013-06-29 05:42:00,
2013-06-29 02:01:00,64.0,59.0,29.62,WSW,247,0.0,0.0,84,0.00,,,0.04,,2013-06-29 06:01:00,
2013-06-29 02:12:00,64.0,59.0,29.62,WSW,247,0.0,0.0,84,0.00,,,0.04,,2013-06-29 06:12:00,
2013-06-29 02:22:00,64.0,59.0,29.62,WSW,247,0.0,0.0,84,0.00,,,0.04,,2013-06-29 06:22:00,
2013-06-29 03:02:00,64.0,59.0,29.62,WSW,247,0.0,0.0,85,0.00,,,0.04,,2013-06-29 07:02:00,
2013-06-29 03:33:00,64.0,59.0,29.61,WSW,247,0.0,0.0,85,0.00,,,0.04,,2013-06-29 07:33:00,
2013-06-29 03:43:00,64.0,59.0,29.61,WSW,247,0.0,0.0,85,0.00,,,0.04,,2013-06-29 07:43:00,
2013-06-29 03:53:00,64.0,59.0,29.61,WSW,247,0.0,0.0,85,0.00,,,0.04,,2013-06-29 07:53:00,
2013-06-29 04:01:00,64.0,59.0,29.61,WSW,247,0.0,0.0,85,0.00,,,0.04,,2013-06-29 08:01:00,
2013-06-29 04:12:00,64.0,59.0,29.61,WSW,247,0.0,0.0,85,0.00,,,0.04,,2013-06-29 08:12:00,
2013-06-29 04:22:00,64.0,60.0,29.61,WSW,247,0.0,0.0,86,0.00,,,0.04,,2013-06-29 08:22:00,
2013-06-29 04:33:00,64.0,60.0,29.61,WSW,247,0.0,0.0,86,0.00,,,0.04,,2013-06-29 08:33:00,
2013-06-29 04:43:00,64.0,60.0,29.60,WSW,247,0.0,0.0,86,0.00,,,0.04,,2013-06-29 08:43:00,
2013-06-29 04:52:00,63.0,59.0,29.61,WSW,247,0.0,0.0,86,0.00,,,0.04,,2013-06-29 08:52:00,
2013-06-29 05:02:00,63.0,59.0,29.60,WSW,247,0.0,0.0,86,0.00,,,0.04,,2013-06-29 09:02:00,
2013-06-29 05:22:00,63.0,59.0,29.61,WSW,247,0.0,0.0,86,0.00,,,0.04,,2013-06-29 09:22:00,
2013-06-29 05:42:00,63.0,58.0,29.61,WSW,247,0.0,0.0,85,0.00,,,0.04,,2013-06-29 09:42:00,
2013-06-29 05:53:00,63.0,58.0,29.61,WSW,247,0.0,0.0,85,0.00,,,0.04,,2013-06-29 09:53:00,
2013-06-29 06:01:00,63.0,58.0,29.62,WSW,247,0.0,0.0,85,0.00,,,0.04,,2013-06-29 10:01:00,
2013-06-29 06:11:00,63.0,59.0,29.62,WSW,247,0.0,0.0,86,0.00,,,0.04,,2013-06-29 10:11:00,
2013-06-29 06:33:00,62.0,58.0,29.62,WSW,247,0.0,0.0,86,0.00,,,0.04,,2013-06-29 10:33:00,
2013-06-29 06:43:00,62.0,58.0,29.62,WSW,247,0.0,0.0,86,0.00,,,0.04,,2013-06-29 10:43:00,
2013-06-29 06:52:00,62.0,58.0,29.62,WSW,247,0.0,0.0,86,0.00,,,0.04,,2013-06-29 10:52:00,
2013-06-29 07:02:00,62.0,58.0,29.62,WSW,247,0.0,0.0,86,0.00,,,0.04,,2013-06-29 11:02:00,
2013-06-29 07:11:00,62.0,58.0,29.62,WSW,247,0.0,0.0,86,0.00,,,0.04,,2013-06-29 11:11:00,
2013-06-29 07:23:00,62.0,58.0,29.62,WSW,247,0.0,0.0,86,0.00,,,0.04,,2013-06-29 11:23:00,
2013-06-29 07:33:00,62.0,58.0,29.62,WSW,247,0.0,0.0,86,0.00,,,0.04,,2013-06-29 11:33:00,
2013-06-29 07:43:00,62.0,58.0,29.63,WSW,247,0.0,0.0,86,0.00,,,0.04,,2013-06-29 11:43:00,
2013-06-29 07:53:00,62.0,58.0,29.62,WSW,247,0.0,0.0,87,0.00,,,0.04,,2013-06-29 11:53:00,
2013-06-29 08:02:00,62.0,58.0,29.62,WSW,247,0.0,0.0,87,0.00,,,0.04,,2013-06-29 12:02:00,
2013-06-29 08:43:00,63.0,59.0,29.64,WSW,247,0.0,0.0,87,0.00,,,0.04,,2013-06-29 12:43:00,
2013-06-29 08:53:00,63.0,59.0,29.64,WSW,247,0.0,0.0,87,0.00,,,0.04,,2013-06-29 12:53:00,
2013-06-29 09:11:00,64.0,60.0,29.64,WSW,247,0.0,0.0,88,0.00,,,0.04,,2013-06-29 13:11:00,
2013-06-29 09:23:00,65.0,61.0,29.65,WSW,247,0.0,0.0,88,0.00,,,0.04,,2013-06-29 13:23:00,
2013-06-29 09:34:00,65.0,61.0,29.65,WSW,247,0.0,0.0,88,0.00,,,0.04,,2013-06-29 13:34:00,
2013-06-29 09:43:00,65.0,61.0,29.65,West,270,0.0,0.0,88,0.00,,,0.04,,2013-06-29 13:43:00,
2013-06-29 10:44:00,67.0,63.0,29.65,WSW,247,0.0,0.0,87,0.00,,,0.04,,2013-06-29 14:44:00,
2013-06-29 10:53:00,67.0,63.0,29.65,WSW,247,0.0,0.0,87,0.00,,,0.04,,2013-06-29 14:53:00,
2013-06-29 11:11:00,67.0,63.0,29.64,North,-999,-999.0,-999.0,87,0.00,,,0.04,,2013-06-29 15:11:00,
2013-06-29 11:22:00,67.0,63.0,29.64,North,-999,-999.0,-999.0,87,0.00,,,0.04,,2013-06-29 15:22:00,
2013-06-29 11:33:00,67.0,62.0,29.65,West,270,0.0,0.0,85,0.00,,,0.04,,2013-06-29 15:33:00,
2013-06-29 11:42:00,67.0,62.0,29.65,West,270,0.0,0.0,85,0.00,,,0.04,,2013-06-29 15:42:00,
2013-06-29 11:53:00,67.0,62.0,29.65,West,270,0.0,0.0,85,0.00,,,0.04,,2013-06-29 15:53:00,
2013-06-29 12:02:00,66.0,61.0,29.64,West,270,0.0,0.0,85,0.00,,,0.04,,2013-06-29 16:02:00,
2013-06-29 12:12:00,66.0,61.0,29.64,West,270,0.0,0.0,85,0.00,,,0.04,,2013-06-29 16:12:00,
2013-06-29 12:23:00,65.0,60.0,29.64,West,270,0.0,0.0,85,0.00,,,0.04,,2013-06-29 16:23:00,
2013-06-29 12:33:00,65.0,60.0,29.64,WSW,247,0.0,0.0,84,0.00,,,0.04,,2013-06-29 16:33:00,
2013-06-29 13:02:00,65.0,60.0,29.64,WSW,247,0.0,0.0,84,0.00,,,0.04,,2013-06-29 17:02:00,
2013-06-29 14:12:00,65.0,58.0,29.63,WSW,247,0.0,0.0,78,0.00,,,0.04,,2013-06-29 18:12:00,
2013-06-29 14:22:00,66.0,59.0,29.63,WSW,247,0.0,0.0,78,0.00,,,0.04,,2013-06-29 18:22:00,
2013-06-29 14:34:00,66.0,59.0,29.63,WSW,247,0.0,0.0,79,0.00,,,0.02,,2013-06-29 18:34:00,
2013-06-29 14:43:00,65.0,58.0,29.64,SW,225,0.0,0.0,79,0.00,,,0.02,,2013-06-29 18:43:00,
2013-06-29 19:12:00,68.0,64.0,29.68,WNW,292,0.0,0.0,88,0.00,,,0.04,,2013-06-29 23:12:00,
2013-06-29 19:23:00,68.0,64.0,29.67,WNW,292,0.0,0.0,88,0.00,,,0.04,,2013-06-29 23:23:00,
2013-06-29 19:34:00,68.0,64.0,29.68,WNW,292,0.0,0.0,88,0.00,,,0.04,,2013-06-29 23:34:00,
2013-06-29 19:43:00,68.0,64.0,29.68,WNW,292,0.0,0.0,87,0.00,,,0.04,,2013-06-29 23:43:00,
2013-06-29 19:52:00,68.0,64.0,29.68,WNW,292,0.0,0.0,87,0.00,,,0.04,,2013-06-29 23:52:00,
2013-06-29 20:02:00,68.0,64.0,29.68,WNW,292,0.0,0.0,87,0.00,,,0.04,,2013-06-30 00:02:00,
2013-06-29 20:12:00,68.0,64.0,29.68,WNW,292,0.0,0.0,86,0.00,,,0.04,,2013-06-30 00:12:00,
2013-06-29 20:22:00,68.0,64.0,29.69,WNW,292,0.0,0.0,86,0.00,,,0.04,,2013-06-30 00:22:00,
2013-06-29 20:33:00,68.0,64.0,29.69,WNW,292,0.0,0.0,86,0.00,,,0.04,,2013-06-30 00:33:00,
2013-06-29 20:43:00,68.0,64.0,29.70,WNW,292,0.0,0.0,87,0.00,,,0.02,,2013-06-30 00:43:00,
2013-06-29 21:01:00,68.0,64.0,29.71,WNW,292,0.0,0.0,87,0.00,,,0.02,,2013-06-30 01:01:00,
2013-06-29 21:11:00,68.0,64.0,29.70,WNW,292,0.0,0.0,87,0.00,,,0.02,,2013-06-30 01:11:00,
2013-06-29 21:33:00,67.0,63.0,29.70,WNW,292,0.0,0.0,86,0.00,,,0.02,,2013-06-30 01:33:00,
2013-06-29 21:44:00,67.0,63.0,29.70,WNW,292,0.0,0.0,86,0.00,,,0.02,,2013-06-30 01:44:00,
2013-06-29 22:02:00,67.0,63.0,29.70,WNW,292,0.0,0.0,86,0.00,,,0.02,,2013-06-30 02:02:00,
2013-06-29 22:11:00,67.0,63.0,29.70,WNW,292,0.0,0.0,86,0.00,,,0.02,,2013-06-30 02:11:00,
2013-06-29 22:34:00,66.0,62.0,29.71,WNW,292,0.0,0.0,86,0.00,,,0.02,,2013-06-30 02:34:00,
2013-06-29 22:43:00,66.0,62.0,29.71,WNW,292,0.0,0.0,86,0.00,,,0.02,,2013-06-30 02:43:00,
2013-06-29 22:50:00,66.0,62.0,29.72,North,-999,-999.0,-999.0,86,0.00,,,0.02,,2013-06-30 02:50:00,
2013-06-29 22:53:00,66.0,62.0,29.72,WNW,292,0.0,0.0,86,0.00,,,0.02,,2013-06-30 02:53:00,
2013-06-29 23:01:00,66.0,62.0,29.72,WNW,292,0.0,0.0,86,0.00,,,0.02,,2013-06-30 03:01:00,
2013-06-29 23:12:00,66.0,62.0,29.72,North,-999,-999.0,-999.0,86,0.00,,,0.02,,2013-06-30 03:12:00,
2013-06-29 23:23:00,66.0,62.0,29.72,North,-999,-999.0,-999.0,86,0.00,,,0.02,,2013-06-30 03:23:00,
2013-06-29 23:33:00,66.0,62.0,29.72,North,-999,-999.0,-999.0,86,0.00,,,0.02,,2013-06-30 03:33:00,
2013-06-29 23:43:00,66.0,62.0,29.72,North,-999,-999.0,-999.0,86,0.00,,,0.02,,2013-06-30 03:43:00,